Time;durP1;ratioP1;P1;durP2;ratioP2;P2;SDS_P1;SDS_P2;PMS_P1;PMS_P2;Temp;Humidity;BMP_temperature;BMP_pressure;BME280_temperature;BME280_humidity;BME280_pressure;Samples;Min_cycle;Max_cycle;Signal;HPM_P1;HPM_P2
2022/06/13 00:01:28;;;;;;;6.20;3.33;;;14.50;99.90;;;;;;6218668;23;20023;-84
2022/06/13 00:03:54;;;;;;;6.07;3.10;;;14.50;99.90;;;;;;6218158;23;20333;-85
2022/06/13 00:06:20;;;;;;;5.15;3.00;;;14.50;99.90;;;;;;6193510;23;20012;-84
2022/06/13 00:08:46;;;;;;;5.22;2.80;;;14.50;99.90;;;;;;6218337;23;20324;-85
2022/06/13 00:11:14;;;;;;;6.72;3.88;;;14.50;99.90;;;;;;6218482;23;20410;-84
2022/06/13 00:13:43;;;;;;;4.43;2.97;;;14.40;99.90;;;;;;6218340;23;20008;-84
2022/06/13 00:16:11;;;;;;;7.03;3.30;;;14.40;99.90;;;;;;6192879;23;20115;-84
2022/06/13 00:18:37;;;;;;;11.80;2.78;;;14.30;99.90;;;;;;6168679;23;20020;-85
2022/06/13 00:21:03;;;;;;;3.97;3.20;;;14.30;99.90;;;;;;6192905;23;20027;-85
2022/06/13 00:23:29;;;;;;;9.20;2.80;;;14.30;99.90;;;;;;6193554;23;20012;-84
2022/06/13 00:25:55;;;;;;;6.25;3.20;;;14.30;99.90;;;;;;6188477;23;20390;-85
2022/06/13 00:28:21;;;;;;;3.63;2.57;;;14.20;99.90;;;;;;6190309;23;20060;-85
2022/06/13 00:30:47;;;;;;;5.55;2.45;;;14.30;99.90;;;;;;6215394;23;20044;-85
2022/06/13 00:33:12;;;;;;;4.70;2.40;;;14.30;99.90;;;;;;6189696;23;20021;-84
2022/06/13 00:35:39;;;;;;;5.60;3.37;;;14.20;99.90;;;;;;6189982;23;20017;-85
2022/06/13 00:38:04;;;;;;;5.13;3.30;;;14.20;99.90;;;;;;6189690;23;20350;-85
2022/06/13 00:40:31;;;;;;;6.85;3.40;;;14.10;99.90;;;;;;6215096;23;20017;-84
2022/06/13 00:42:57;;;;;;;;;;;14.20;99.90;;;;;;6189833;23;20063;-84
2022/06/13 00:45:32;;;;;;;5.72;3.30;;;14.10;99.90;;;;;;6190045;23;19915;-85
2022/06/13 00:47:58;;;;;;;11.23;3.47;;;14.10;99.90;;;;;;6214728;23;20019;-85
2022/06/13 00:50:29;;;;;;;6.07;3.20;;;14.10;99.90;;;;;;6190077;23;20012;-85
2022/06/13 00:53:11;;;;;;;6.35;3.60;;;14.10;99.90;;;;;;6214747;23;20013;-85
2022/06/13 00:55:45;;;;;;;5.88;3.30;;;14.10;99.90;;;;;;6189943;23;20154;-85
2022/06/13 00:58:12;;;;;;;4.32;3.33;;;14.10;99.90;;;;;;6214535;23;20051;-84
2022/06/13 01:00:40;;;;;;;5.28;2.83;;;14.10;99.90;;;;;;6165164;23;20028;-85
2022/06/13 01:03:06;;;;;;;6.82;2.90;;;14.10;99.90;;;;;;6189351;23;20024;-84
2022/06/13 01:05:35;;;;;;;3.55;3.25;;;14.10;99.90;;;;;;6189780;23;20021;-84
2022/06/13 01:08:05;;;;;;;5.32;2.60;;;14.00;99.90;;;;;;6214245;23;20013;-85
2022/06/13 01:13:16;;;;;;;7.65;2.85;;;14.00;99.90;;;;;;6214317;23;20063;-85
2022/06/13 01:15:47;;;;;;;5.13;2.85;;;14.00;99.90;;;;;;6164889;23;20013;-84
2022/06/13 01:18:19;;;;;;;5.85;3.30;;;14.00;99.90;;;;;;6189281;23;20070;-85
2022/06/13 01:21:12;;;;;;;5.38;3.80;;;14.00;99.90;;;;;;6189741;23;20039;-84
2022/06/13 01:23:58;;;;;;;8.75;3.58;;;14.00;99.90;;;;;;6215069;23;20017;-85
2022/06/13 01:26:46;;;;;;;6.55;2.83;;;13.90;99.90;;;;;;6214596;23;20016;-85
2022/06/13 01:29:31;;;;;;;7.55;2.95;;;13.90;99.90;;;;;;6214276;23;20345;-84
2022/06/13 01:32:14;;;;;;;7.70;3.50;;;14.00;99.90;;;;;;6189477;23;20090;-84
2022/06/13 01:34:50;;;;;;;9.88;3.17;;;13.90;99.90;;;;;;6214548;23;20567;-85
2022/06/13 01:37:50;;;;;;;6.90;3.35;;;13.90;99.90;;;;;;6188842;23;20023;-85
2022/06/13 01:40:30;;;;;;;3.25;2.55;;;13.90;99.90;;;;;;6189009;23;20437;-85
2022/06/13 01:43:15;;;;;;;5.55;3.42;;;13.80;99.90;;;;;;6214810;23;20012;-84
2022/06/13 01:45:52;;;;;;;5.70;3.90;;;13.90;99.90;;;;;;6214603;23;20028;-84
2022/06/13 01:48:23;;;;;;;6.10;4.10;;;13.90;99.90;;;;;;6214150;23;20020;-84
2022/06/13 01:51:14;;;;;;;6.20;3.20;;;13.90;99.90;;;;;;6189465;23;20066;-84
2022/06/13 01:53:55;;;;;;;5.90;3.13;;;13.90;99.90;;;;;;6214475;23;20342;-85
2022/06/13 01:56:29;;;;;;;5.55;3.33;;;13.90;99.90;;;;;;6213842;23;20345;-85
2022/06/13 01:59:31;;;;;;;3.95;3.13;;;13.90;99.90;;;;;;6188725;23;20023;-85
2022/06/13 02:02:05;;;;;;;5.50;2.47;;;13.80;99.90;;;;;;6189447;23;20504;-85
2022/06/13 02:04:36;;;;;;;5.60;3.90;;;13.80;99.90;;;;;;6214394;23;20013;-85
2022/06/13 02:07:10;;;;;;;7.55;3.17;;;13.80;99.90;;;;;;6189457;23;20020;-84
2022/06/13 02:09:59;;;;;;;4.07;2.97;;;13.80;99.90;;;;;;6214521;23;20013;-85
2022/06/13 02:12:27;;;;;;;7.32;3.53;;;13.80;99.90;;;;;;6213835;23;20337;-85
2022/06/13 02:15:03;;;;;;;4.97;2.83;;;13.80;99.90;;;;;;6214187;23;20016;-85
2022/06/13 02:17:35;;;;;;;6.77;3.40;;;13.80;99.90;;;;;;6189262;23;20445;-85
2022/06/13 02:20:08;;;;;;;7.90;3.47;;;13.70;99.90;;;;;;6189230;23;20017;-84
2022/06/13 02:22:51;;;;;;;5.95;2.72;;;13.80;99.90;;;;;;6214228;23;20074;-85
2022/06/13 02:25:23;;;;;;;4.38;3.60;;;13.80;99.90;;;;;;6213368;23;20023;-85
2022/06/13 02:27:55;;;;;;;7.00;3.03;;;13.70;99.90;;;;;;6214319;23;20024;-84
2022/06/13 02:30:26;;;;;;;7.65;2.83;;;13.70;99.90;;;;;;6188566;23;20028;-85
2022/06/13 02:32:58;;;;;;;8.77;3.15;;;13.70;99.90;;;;;;6189111;23;20092;-85
2022/06/13 02:35:46;;;;;;;9.55;3.45;;;13.70;99.90;;;;;;6213512;23;20052;-84
2022/06/13 02:38:24;;;;;;;6.20;2.95;;;13.60;99.90;;;;;;6213654;23;20465;-85
2022/06/13 02:41:12;;;;;;;7.03;3.13;;;13.60;99.90;;;;;;6189255;23;20056;-84
2022/06/13 02:43:45;;;;;;;5.07;3.40;;;13.50;99.90;;;;;;6214094;23;20024;-85
2022/06/13 02:46:19;;;;;;;12.88;3.60;;;13.50;99.90;;;;;;6213614;23;20349;-85
2022/06/13 02:49:03;;;;;;;4.93;3.88;;;13.50;99.90;;;;;;6213646;23;20015;-84
2022/06/13 02:51:53;;;;;;;6.30;3.03;;;13.50;99.90;;;;;;6188410;23;20024;-85
2022/06/13 02:54:48;;;;;;;6.95;3.78;;;13.50;99.90;;;;;;6213427;23;20016;-85
2022/06/13 02:57:32;;;;;;;5.72;3.38;;;13.50;99.90;;;;;;6159354;23;20012;-85
2022/06/13 03:00:22;;;;;;;7.70;3.22;;;13.40;99.90;;;;;;6188728;23;20020;-85
2022/06/13 03:03:06;;;;;;;4.35;3.78;;;13.50;99.90;;;;;;6188737;23;20030;-85
2022/06/13 03:05:41;;;;;;;5.05;3.47;;;13.50;99.90;;;;;;6188308;23;20024;-85
2022/06/13 03:08:37;;;;;;;8.70;3.42;;;13.50;99.90;;;;;;6213870;23;20017;-85
2022/06/13 03:11:27;;;;;;;4.95;3.58;;;13.50;99.90;;;;;;6213729;23;20019;-85
2022/06/13 03:14:29;;;;;;;13.27;5.43;;;13.50;99.90;;;;;;6189102;23;20020;-85
2022/06/13 03:17:26;;;;;;;6.57;3.67;;;13.50;99.90;;;;;;6188718;23;20345;-84
2022/06/13 03:20:08;;;;;;;9.60;4.03;;;13.40;99.90;;;;;;6213690;23;20013;-85
2022/06/13 03:22:42;;;;;;;4.90;3.45;;;13.50;99.90;;;;;;6188226;23;20020;-84
2022/06/13 03:25:25;;;;;;;4.93;3.70;;;13.60;99.90;;;;;;6193136;23;20016;-84
2022/06/13 03:28:08;;;;;;;7.85;4.50;;;13.60;99.90;;;;;;6218807;23;20016;-85
2022/06/13 03:30:41;;;;;;;9.13;5.60;;;13.60;99.90;;;;;;6218211;23;20427;-84
2022/06/13 03:35:59;;;;;;;7.90;4.53;;;13.60;99.90;;;;;;6218679;23;20020;-84
2022/06/13 03:38:33;;;;;;;8.10;3.63;;;13.60;99.90;;;;;;6218096;23;20066;-85
2022/06/13 03:41:01;;;;;;;5.78;3.58;;;13.70;99.90;;;;;;6218758;23;20087;-84
2022/06/13 03:43:48;;;;;;;12.60;3.83;;;13.60;99.90;;;;;;6218167;23;20012;-85
2022/06/13 03:46:32;;;;;;;6.80;4.20;;;13.70;99.90;;;;;;6218580;23;20035;-84
2022/06/13 03:49:10;;;;;;;8.13;4.55;;;13.60;99.90;;;;;;6219000;23;20371;-85
2022/06/13 03:51:47;;;;;;;8.70;3.67;;;13.70;99.90;;;;;;6218143;23;20046;-85
2022/06/13 03:54:15;;;;;;;8.75;4.60;;;13.60;99.90;;;;;;6193613;23;20436;-85
2022/06/13 03:56:44;;;;;;;8.35;3.30;;;13.60;99.90;;;;;;6192978;23;20375;-85
2022/06/13 03:59:20;;;;;;;6.72;3.78;;;13.60;99.90;;;;;;6193400;23;20024;-84
2022/06/13 04:01:57;;;;;;;4.60;3.95;;;13.70;99.90;;;;;;6219919;23;20012;-85
2022/06/13 04:04:26;;;;;;;7.47;3.67;;;13.60;99.90;;;;;;6195113;23;20016;-85
2022/06/13 04:06:54;;;;;;;6.68;4.40;;;13.60;99.90;;;;;;6195398;23;20440;-85
2022/06/13 04:09:28;;;;;;;4.63;3.17;;;13.70;99.90;;;;;;6170529;23;20470;-86
2022/06/13 04:12:14;;;;;;;6.60;4.50;;;13.70;99.90;;;;;;6220550;23;20432;-85
2022/06/13 04:14:58;;;;;;;7.80;3.45;;;13.70;99.90;;;;;;6194971;23;20027;-85
2022/06/13 04:17:58;;;;;;;4.30;3.58;;;13.70;99.90;;;;;;6219836;23;20016;-85
2022/06/13 04:20:35;;;;;;;8.43;3.83;;;13.70;99.90;;;;;;6219897;23;20016;-85
2022/06/13 04:23:24;;;;;;;3.88;3.00;;;13.70;99.90;;;;;;6220422;23;20020;-85
2022/06/13 04:26:02;;;;;;;8.93;3.38;;;13.80;99.90;;;;;;6172678;23;20027;-85
2022/06/13 04:28:53;;;;;;;5.75;2.75;;;13.80;99.90;;;;;;6219869;23;20016;-85
2022/06/13 04:31:21;;;;;;;8.63;3.70;;;13.80;99.90;;;;;;6220420;23;20098;-84
2022/06/13 04:34:19;;;;;;;4.97;3.38;;;13.80;99.90;;;;;;6219614;23;20016;-85
2022/06/13 04:36:47;;;;;;;5.30;3.13;;;14.10;99.90;;;;;;6193276;23;20073;-85
2022/06/13 04:39:17;;;;;;;4.57;3.08;;;13.90;99.90;;;;;;6219827;23;20069;-85
2022/06/13 04:41:45;;;;;;;6.20;3.72;;;14.00;99.90;;;;;;6246556;23;20241;-85
2022/06/13 04:44:31;;;;;;;3.17;2.17;;;14.00;99.90;;;;;;6195005;23;20456;-85
2022/06/13 04:46:59;;;;;;;6.88;2.63;;;14.10;99.90;;;;;;6220199;23;20016;-85
2022/06/13 04:49:31;;;;;;;4.63;2.65;;;14.10;99.90;;;;;;6194540;23;20102;-89
2022/06/13 04:51:59;;;;;;;5.18;2.45;;;14.20;99.90;;;;;;6220058;23;20023;-84
2022/06/13 04:54:55;;;;;;;3.78;2.10;;;14.20;99.90;;;;;;6195085;23;20400;-85
2022/06/13 04:57:21;;;;;;;11.82;2.42;;;14.30;99.90;;;;;;6192321;23;20055;-85
2022/06/13 04:59:47;;;;;;;3.33;2.40;;;14.30;99.90;;;;;;6219480;23;20016;-85
2022/06/13 05:02:18;;;;;;;3.83;2.00;;;14.40;99.90;;;;;;6194983;23;20027;-85
2022/06/13 05:04:45;;;;;;;4.70;2.00;;;14.50;99.90;;;;;;6194369;23;20022;-85
2022/06/13 05:07:20;;;;;;;4.05;2.45;;;14.60;99.90;;;;;;6219840;23;20047;-84
2022/06/13 05:09:54;;;;;;;2.22;1.63;;;14.60;99.90;;;;;;6219137;23;20050;-85
2022/06/13 05:12:31;;;;;;;4.25;2.22;;;14.80;99.90;;;;;;6193935;23;20020;-84
2022/06/13 05:15:16;;;;;;;4.00;1.67;;;15.00;99.90;;;;;;6219767;23;20051;-84
2022/06/13 05:18:20;;;;;;;3.65;1.67;;;15.10;99.90;;;;;;6246135;23;20020;-85
2022/06/13 05:21:08;;;;;;;3.60;1.92;;;15.20;99.90;;;;;;6137639;23;20066;-84
2022/06/13 05:24:06;;;;;;;2.75;1.58;;;15.30;99.90;;;;;;6193596;23;20070;-85
2022/06/13 05:26:31;;;;;;;4.63;2.28;;;15.40;99.90;;;;;;6218811;23;20030;-86
2022/06/13 05:28:59;;;;;;;3.03;2.13;;;15.30;99.90;;;;;;6194650;23;20106;-85
2022/06/13 05:31:26;;;;;;;3.28;1.23;;;15.20;99.90;;;;;;6195163;23;20014;-85
2022/06/13 05:33:52;;;;;;;6.53;1.67;;;15.20;99.90;;;;;;6219066;23;20023;-85
2022/06/13 05:36:21;;;;;;;3.80;1.88;;;15.10;99.90;;;;;;6194386;23;20016;-85
2022/06/13 05:39:00;;;;;;;2.45;1.33;;;14.90;99.90;;;;;;6194003;23;20035;-85
2022/06/13 05:41:26;;;;;;;1.80;0.93;;;14.80;99.90;;;;;;6194635;23;20023;-85
2022/06/13 05:43:51;;;;;;;1.75;1.20;;;14.60;99.90;;;;;;6219090;23;20091;-85
2022/06/13 05:46:31;;;;;;;1.60;0.95;;;14.50;99.90;;;;;;6219613;23;20058;-86
2022/06/13 05:48:57;;;;;;;2.45;1.10;;;14.30;99.90;;;;;;6219074;23;20409;-85
2022/06/13 05:51:23;;;;;;;1.95;1.40;;;14.20;99.90;;;;;;6219542;23;20016;-85
2022/06/13 05:53:49;;;;;;;1.45;1.35;;;14.20;99.90;;;;;;6219096;23;20335;-85
2022/06/13 05:56:15;;;;;;;2.60;1.73;;;14.20;99.90;;;;;;6194671;23;20016;-85
2022/06/13 05:58:41;;;;;;;2.42;1.40;;;14.40;99.90;;;;;;6218920;23;20336;-85
2022/06/13 06:01:07;;;;;;;1.30;1.13;;;14.60;99.90;;;;;;6194346;23;20012;-85
2022/06/13 06:03:33;;;;;;;2.15;1.17;;;14.60;99.90;;;;;;6169793;23;20051;-85
2022/06/13 06:06:01;;;;;;;5.30;1.95;;;14.70;99.90;;;;;;6218793;23;20028;-85
2022/06/13 06:08:33;;;;;;;1.88;1.40;;;14.90;99.90;;;;;;6194264;23;20104;-85
2022/06/13 06:10:59;;;;;;;1.88;1.10;;;15.20;99.90;;;;;;6193560;23;20027;-85
2022/06/13 06:13:27;;;;;;;2.53;1.33;;;15.40;99.90;;;;;;6194382;23;20087;-85
2022/06/13 06:15:53;;;;;;;1.75;1.52;;;15.60;99.90;;;;;;6218256;23;20019;-85
2022/06/13 06:18:20;;;;;;;2.63;0.75;;;15.80;99.90;;;;;;6194542;23;20024;-85
2022/06/13 06:20:46;;;;;;;1.33;1.00;;;15.90;99.90;;;;;;6218804;23;20038;-85
2022/06/13 06:23:12;;;;;;;1.67;1.10;;;16.10;99.90;;;;;;6193716;23;20023;-85
2022/06/13 06:25:40;;;;;;;1.00;0.80;;;16.10;99.90;;;;;;6193738;23;20062;-87
2022/06/13 06:28:06;;;;;;;1.15;1.02;;;16.10;99.90;;;;;;6194234;23;20020;-84
2022/06/13 06:30:32;;;;;;;0.95;0.95;;;16.10;99.90;;;;;;6219148;23;20052;-85
2022/06/13 06:32:59;;;;;;;2.17;0.93;;;16.20;99.90;;;;;;6168924;23;20035;-85
2022/06/13 06:35:27;;;;;;;1.83;0.90;;;16.10;99.90;;;;;;6219000;23;20023;-85
2022/06/13 06:37:54;;;;;;;4.05;1.25;;;16.10;99.90;;;;;;6218742;23;20016;-85
2022/06/13 06:40:23;;;;;;;1.88;0.93;;;16.20;99.90;;;;;;6218984;23;20066;-85
2022/06/13 06:42:49;;;;;;;4.50;1.00;;;16.10;99.90;;;;;;6218597;23;20012;-85
2022/06/13 06:45:15;;;;;;;1.50;0.80;;;16.10;99.90;;;;;;6193862;23;20018;-85
2022/06/13 06:47:41;;;;;;;1.58;0.95;;;15.90;99.90;;;;;;6218508;23;20016;-90
2022/06/13 06:50:13;;;;;;;1.67;1.08;;;15.80;99.90;;;;;;6194049;23;20016;-85
2022/06/13 06:52:40;;;;;;;0.85;0.85;;;15.60;99.90;;;;;;6218525;23;20020;-85
2022/06/13 07:00:37;;;;;;;2.42;1.48;;;15.20;99.90;;;;;;6197816;23;20461;-84
2022/06/13 07:03:03;;;;;;;0.73;0.73;;;15.00;99.90;;;;;;6218357;23;20087;-84
2022/06/13 07:05:28;;;;;;;0.70;0.70;;;14.80;99.90;;;;;;6246051;23;20016;-84
2022/06/13 07:07:54;;;;;;;1.83;0.53;;;14.60;99.90;;;;;;6193283;23;20012;-84
2022/06/13 07:10:19;;;;;;;1.13;0.50;;;14.50;99.90;;;;;;6193741;23;20016;-85
2022/06/13 07:12:45;;;;;;;1.77;1.63;;;14.40;99.90;;;;;;6193448;23;20044;-85
2022/06/13 07:15:14;;;;;;;1.25;1.05;;;14.30;99.90;;;;;;6218776;23;20024;-85
2022/06/13 07:17:40;;;;;;;1.13;0.68;;;14.40;99.90;;;;;;6218704;23;20016;-85
2022/06/13 07:20:06;;;;;;;1.73;0.53;;;14.80;99.90;;;;;;6217936;23;20137;-85
2022/06/13 07:22:32;;;;;;;0.63;0.40;;;15.10;99.90;;;;;;6218866;23;20250;-84
2022/06/13 07:24:57;;;;;;;0.40;0.40;;;15.40;99.90;;;;;;6193099;23;20016;-85
2022/06/13 07:27:23;;;;;;;1.10;0.70;;;15.60;99.90;;;;;;6218911;23;20051;-84
2022/06/13 07:29:49;;;;;;;0.63;0.63;;;15.70;99.90;;;;;;6193140;23;20020;-86
2022/06/13 07:32:25;;;;;;;0.70;0.70;;;15.70;99.90;;;;;;6218897;23;20095;-85
2022/06/13 07:34:52;;;;;;;0.40;0.40;;;15.80;99.90;;;;;;6218198;23;20027;-85
2022/06/13 07:40:09;;;;;;;0.55;0.55;;;16.10;99.90;;;;;;6220222;23;20125;-85
2022/06/13 07:42:43;;;;;;;5.65;1.17;;;16.30;99.90;;;;;;6220769;23;20022;-85
2022/06/13 07:45:16;;;;;;;1.73;0.52;;;16.50;99.90;;;;;;6194908;23;20103;-85
2022/06/13 07:47:42;;;;;;;0.85;0.80;;;16.60;99.90;;;;;;6195699;23;20015;-84
2022/06/13 07:50:11;;;;;;;0.90;0.90;;;16.80;99.90;;;;;;6220203;23;20051;-85
2022/06/13 07:52:36;;;;;;;1.10;0.70;;;16.90;99.90;;;;;;6220316;23;20023;-84
2022/06/13 07:55:03;;;;;;;3.20;1.73;;;17.00;99.90;;;;;;6195038;23;20016;-85
2022/06/13 07:57:28;;;;;;;2.22;0.82;;;17.10;99.90;;;;;;6171060;23;20058;-85
2022/06/13 07:59:54;;;;;;;2.57;1.00;;;17.20;99.90;;;;;;6170236;23;20024;-85
2022/06/13 08:02:20;;;;;;;2.13;1.33;;;17.20;99.90;;;;;;6170714;23;20012;-84
2022/06/13 08:04:45;;;;;;;1.60;0.98;;;17.20;99.90;;;;;;6195668;23;20039;-84
2022/06/13 08:07:15;;;;;;;2.03;1.20;;;17.30;99.90;;;;;;6194777;23;20028;-84
2022/06/13 08:09:41;;;;;;;2.53;1.45;;;17.40;99.90;;;;;;6220473;23;20086;-84
2022/06/13 08:12:07;;;;;;;3.28;1.45;;;17.40;99.90;;;;;;6194945;23;20016;-84
2022/06/13 08:14:33;;;;;;;3.88;1.10;;;17.30;99.90;;;;;;6220179;23;20016;-84
2022/06/13 08:16:59;;;;;;;2.45;0.98;;;17.10;99.90;;;;;;6219676;23;20019;-85
2022/06/13 08:19:25;;;;;;;2.75;1.15;;;16.90;99.90;;;;;;6220209;23;20020;-84
2022/06/13 08:21:51;;;;;;;1.63;1.50;;;16.70;99.90;;;;;;6221224;23;20016;-84
2022/06/13 08:24:18;;;;;;;3.35;1.45;;;16.60;99.90;;;;;;6219890;23;20051;-84
2022/06/13 08:26:44;;;;;;;4.85;1.98;;;16.80;99.90;;;;;;6220097;23;20043;-84
2022/06/13 08:29:10;;;;;;;2.85;1.17;;;17.00;99.90;;;;;;6194851;23;20480;-84
2022/06/13 08:31:36;;;;;;;;;;;17.10;99.90;;;;;;6195886;23;20027;-84
2022/06/13 08:34:04;;;;;;;5.25;1.05;;;17.30;99.90;;;;;;6219836;23;19916;-84
2022/06/13 08:36:30;;;;;;;0.70;0.70;;;17.50;99.90;;;;;;6146054;23;20349;-84
2022/06/13 08:38:55;;;;;;;0.95;0.82;;;17.60;99.90;;;;;;6170239;23;20030;-89
2022/06/13 08:41:28;;;;;;;1.77;1.50;;;17.40;99.90;;;;;;6194996;23;20100;-84
2022/06/13 08:44:32;;;;;;;3.80;1.40;;;17.20;99.90;;;;;;6195149;23;20251;-84
2022/06/13 08:47:27;;;;;;;2.83;1.00;;;16.90;99.90;;;;;;6219634;23;20123;-84
2022/06/13 08:50:19;;;;;;;1.70;1.10;;;16.80;99.90;;;;;;6195224;23;20026;-84
2022/06/13 08:53:07;;;;;;;1.50;0.77;;;16.70;99.90;;;;;;6220158;23;20100;-84
2022/06/13 08:55:40;;;;;;;;;;;16.50;99.90;;;;;;6220760;23;20066;-84
2022/06/13 08:58:12;;;;;;;1.45;1.27;;;16.20;99.90;;;;;;6219558;23;20312;-84
2022/06/13 09:00:52;;;;;;;2.22;2.05;;;16.10;99.90;;;;;;6194886;23;20195;-84
2022/06/13 09:03:36;;;;;;;3.60;1.73;;;16.10;99.90;;;;;;6219074;23;20103;-84
2022/06/13 09:06:14;;;;;;;3.08;1.98;;;16.00;99.90;;;;;;6194448;23;20016;-85
2022/06/13 09:08:48;;;;;;;3.78;1.50;;;16.10;99.90;;;;;;6220028;23;20459;-84
2022/06/13 09:11:24;;;;;;;2.47;1.20;;;16.30;99.90;;;;;;6219454;23;20341;-84
2022/06/13 09:14:20;;;;;;;2.80;1.25;;;16.40;99.90;;;;;;6219994;23;20016;-84
2022/06/13 09:17:03;;;;;;;2.28;0.98;;;16.50;99.90;;;;;;6219957;23;20051;-84
2022/06/13 09:20:07;;;;;;;1.38;1.08;;;16.60;99.90;;;;;;6246662;23;20464;-85
2022/06/13 09:22:46;;;;;;;2.00;1.90;;;16.70;99.90;;;;;;6219908;23;20456;-84
2022/06/13 09:25:44;;;;;;;1.00;0.90;;;16.70;99.90;;;;;;6219053;23;20023;-84
2022/06/13 09:28:28;;;;;;;1.63;0.93;;;16.60;99.90;;;;;;6218868;23;20031;-84
2022/06/13 09:31:09;;;;;;;2.33;1.65;;;16.50;99.90;;;;;;6219738;23;20016;-84
2022/06/13 09:33:39;;;;;;;1.38;1.15;;;16.40;99.90;;;;;;6219865;23;20078;-84
2022/06/13 09:36:32;;;;;;;2.28;1.83;;;16.60;99.90;;;;;;6219210;23;20031;-84
2022/06/13 09:39:04;;;;;;;2.38;1.00;;;16.80;99.90;;;;;;6194693;23;20016;-83
2022/06/13 09:41:57;;;;;;;3.13;1.00;;;16.80;99.90;;;;;;6219522;23;20070;-83
2022/06/13 09:44:32;;;;;;;1.70;1.17;;;16.60;99.90;;;;;;6194098;23;20395;-83
2022/06/13 09:47:40;;;;;;;1.92;1.52;;;16.50;99.90;;;;;;6194447;23;20024;-83
2022/06/13 09:50:35;;;;;;;1.17;0.97;;;16.30;99.90;;;;;;6154389;23;20095;-85
2022/06/13 09:53:32;;;;;;;0.93;0.88;;;16.20;99.90;;;;;;6194494;23;20246;-84
2022/06/13 09:56:04;;;;;;;6.65;1.10;;;16.20;99.90;;;;;;6194392;23;20505;-84
2022/06/13 09:59:09;;;;;;;2.60;1.38;;;16.10;99.90;;;;;;6219159;23;20012;-85
2022/06/13 10:01:59;;;;;;;2.30;1.38;;;16.20;99.90;;;;;;6219627;23;20016;-85
2022/06/13 10:04:47;;;;;;;1.02;0.90;;;16.50;99.90;;;;;;6193823;23;20113;-85
2022/06/13 10:07:19;;;;;;;1.20;0.90;;;16.70;99.90;;;;;;6219055;23;20016;-85
2022/06/13 10:09:52;;;;;;;6.18;2.42;;;17.00;99.90;;;;;;6219733;23;20070;-85
2022/06/13 10:12:33;;;;;;;3.40;2.08;;;17.10;99.90;;;;;;6218854;23;20024;-84
2022/06/13 10:15:25;;;;;;;2.40;1.45;;;17.00;99.90;;;;;;6219233;23;20020;-83
2022/06/13 10:18:13;;;;;;;2.20;1.35;;;16.70;99.90;;;;;;6194490;23;20024;-83
2022/06/13 10:20:47;;;;;;;2.83;1.30;;;16.40;99.90;;;;;;6194208;23;20055;-83
2022/06/13 10:23:37;;;;;;;1.88;1.20;;;16.10;99.90;;;;;;6193576;23;20020;-83
2022/06/13 10:26:18;;;;;;;3.70;1.48;;;15.90;99.90;;;;;;6219203;23;20479;-83
2022/06/13 10:29:21;;;;;;;1.63;1.52;;;15.90;99.90;;;;;;6194271;23;20326;-84
2022/06/13 10:32:11;;;;;;;5.50;1.40;;;16.00;99.90;;;;;;6219150;23;20016;-84
2022/06/13 10:35:12;;;;;;;1.80;1.35;;;16.30;99.90;;;;;;6194353;23;20437;-84
2022/06/13 10:37:56;;;;;;;2.38;1.73;;;16.50;99.90;;;;;;6193903;23;20027;-84
2022/06/13 10:40:24;;;;;;;2.72;1.52;;;16.70;99.90;;;;;;6193604;23;20440;-84
2022/06/13 10:42:50;;;;;;;3.28;1.17;;;16.90;99.90;;;;;;6219015;23;20340;-84
2022/06/13 10:45:16;;;;;;;2.15;1.15;;;17.00;99.90;;;;;;6245775;23;20019;-84
2022/06/13 10:48:06;;;;;;;1.63;0.90;;;16.90;99.90;;;;;;6219008;23;20456;-84
2022/06/13 10:50:55;;;;;;;1.98;1.45;;;16.70;99.90;;;;;;6193437;23;20020;-85
2022/06/13 10:53:23;;;;;;;1.85;1.20;;;16.60;99.90;;;;;;6218635;23;20081;-84
2022/06/13 10:55:51;;;;;;;2.35;1.17;;;16.30;99.90;;;;;;6218802;23;20043;-84
2022/06/13 10:58:42;;;;;;;1.30;1.20;;;16.20;99.90;;;;;;6193366;23;20016;-84
2022/06/13 11:01:17;;;;;;;0.95;0.90;;;16.20;99.90;;;;;;6199044;23;20016;-84
2022/06/13 11:04:03;;;;;;;2.30;0.93;;;16.30;99.90;;;;;;6245972;23;20445;-84
2022/06/13 11:06:40;;;;;;;0.90;0.80;;;16.30;99.90;;;;;;6218109;23;20074;-85
2022/06/13 11:09:38;;;;;;;1.27;1.17;;;16.40;99.90;;;;;;6193757;23;20024;-84
2022/06/13 11:12:26;;;;;;;4.85;1.15;;;16.60;99.90;;;;;;6245578;23;20026;-85
2022/06/13 11:24:01;;;;;;;4.97;1.13;;;17.10;99.90;;;;;;6218288;23;20020;-85
2022/06/13 11:29:26;;;;;;;5.57;2.38;;;16.80;99.90;;;;;;6218280;23;20043;-85
2022/06/13 11:31:55;;;;;;;2.83;0.98;;;16.70;99.90;;;;;;6244997;23;20452;-84
2022/06/13 11:34:21;;;;;;;2.53;1.13;;;16.80;99.90;;;;;;6218055;23;20020;-85
2022/06/13 11:37:21;;;;;;;2.40;1.70;;;16.90;99.90;;;;;;6218459;23;20055;-84
2022/06/13 11:39:49;;;;;;;3.28;1.10;;;16.90;99.90;;;;;;6218994;23;20344;-84
2022/06/13 11:42:17;;;;;;;1.58;0.85;;;16.90;99.90;;;;;;6218708;23;20066;-85
2022/06/13 11:44:48;;;;;;;2.65;1.33;;;16.80;99.90;;;;;;6218472;23;20027;-85
2022/06/13 11:47:16;;;;;;;1.55;1.45;;;16.70;99.90;;;;;;6218725;23;20012;-85
2022/06/13 11:49:45;;;;;;;3.15;1.17;;;16.60;99.90;;;;;;6218039;23;20012;-85
2022/06/13 11:52:13;;;;;;;3.90;1.70;;;16.60;99.90;;;;;;6193111;23;20024;-84
2022/06/13 11:54:56;;;;;;;3.85;1.60;;;16.70;99.90;;;;;;6218078;23;20018;-84
2022/06/13 11:57:36;;;;;;;2.78;1.40;;;16.70;99.90;;;;;;6193183;23;20038;-84
2022/06/13 12:00:20;;;;;;;3.25;1.38;;;16.80;99.90;;;;;;6218546;23;20016;-85
2022/06/13 12:02:49;;;;;;;4.22;1.65;;;16.80;99.90;;;;;;6218764;23;20016;-84
2022/06/13 12:05:19;;;;;;;5.05;1.45;;;16.90;99.90;;;;;;6218769;23;20039;-85
2022/06/13 12:08:13;;;;;;;3.65;1.33;;;17.00;99.90;;;;;;6193416;23;20055;-85
2022/06/13 12:10:41;;;;;;;5.43;1.38;;;17.10;99.90;;;;;;6197799;23;20122;-85
2022/06/13 12:13:14;;;;;;;2.00;1.77;;;17.20;99.90;;;;;;6218386;23;20174;-86
2022/06/13 12:15:53;;;;;;;1.80;1.17;;;17.20;99.90;;;;;;6192830;23;20012;-84
2022/06/13 12:18:26;;;;;;;2.33;1.30;;;17.20;99.90;;;;;;6193365;23;20016;-84
2022/06/13 12:20:52;;;;;;;5.00;2.28;;;17.30;99.90;;;;;;6192973;23;20020;-84
2022/06/13 12:23:35;;;;;;;3.67;1.77;;;17.30;99.90;;;;;;6195329;23;20024;-84
2022/06/13 12:26:11;;;;;;;1.50;1.02;;;17.30;99.90;;;;;;6195043;23;20123;-85
2022/06/13 12:28:53;;;;;;;2.22;2.03;;;17.30;99.90;;;;;;6219850;23;20016;-85
2022/06/13 12:31:40;;;;;;;3.90;2.42;;;17.60;99.90;;;;;;6220329;23;20028;-84
2022/06/13 12:34:34;;;;;;;4.68;1.00;;;17.70;99.90;;;;;;6220374;23;20016;-85
2022/06/13 12:37:12;;;;;;;2.08;1.30;;;17.80;99.90;;;;;;6220483;23;20352;-84
2022/06/13 12:40:10;;;;;;;7.70;1.67;;;18.00;99.90;;;;;;6219645;23;20028;-86
2022/06/13 12:42:53;;;;;;;3.20;1.20;;;17.90;99.90;;;;;;6150671;23;20449;-84
2022/06/13 12:45:34;;;;;;;4.85;1.40;;;17.80;99.90;;;;;;6220272;23;20016;-84
2022/06/13 12:48:05;;;;;;;1.38;0.95;;;17.70;99.90;;;;;;6220157;23;20395;-85
2022/06/13 12:51:06;;;;;;;1.83;1.50;;;17.60;99.90;;;;;;6194123;23;20024;-84
2022/06/13 12:53:53;;;;;;;1.67;1.02;;;17.50;99.90;;;;;;6219741;23;20008;-84
2022/06/13 12:56:28;;;;;;;5.57;1.60;;;17.60;99.90;;;;;;6220209;23;20440;-85
2022/06/13 12:59:17;;;;;;;3.15;1.00;;;17.90;99.90;;;;;;6220423;23;20251;-85
2022/06/13 13:01:51;;;;;;;2.28;1.20;;;18.30;99.90;;;;;;6194545;23;20472;-85
2022/06/13 13:04:35;;;;;;;2.60;1.17;;;18.60;99.90;;;;;;6194862;23;20027;-85
2022/06/13 13:07:26;;;;;;;1.23;0.80;;;18.90;99.90;;;;;;6246678;23;20012;-85
2022/06/13 13:10:00;;;;;;;1.10;1.05;;;18.90;99.90;;;;;;6219904;23;20019;-85
2022/06/13 13:12:41;;;;;;;1.13;1.02;;;18.70;99.90;;;;;;6194882;23;20020;-86
2022/06/13 13:15:11;;;;;;;2.40;1.05;;;18.50;99.90;;;;;;6220118;23;20020;-85
2022/06/13 13:17:50;;;;;;;2.10;0.80;;;18.30;99.90;;;;;;6219448;23;20347;-85
2022/06/13 13:20:37;;;;;;;4.60;1.48;;;18.20;99.90;;;;;;6219803;23;20016;-85
2022/06/13 13:23:25;;;;;;;3.70;1.27;;;18.00;99.90;;;;;;6195147;23;20016;-85
2022/06/13 13:26:16;;;;;;;1.95;1.00;;;17.80;99.90;;;;;;6218824;23;20052;-85
2022/06/13 13:29:25;;;;;;;3.72;1.70;;;17.70;99.90;;;;;;6219470;23;20070;-85
2022/06/13 13:32:04;;;;;;;3.42;1.27;;;17.60;99.90;;;;;;6149953;23;20444;-85
2022/06/13 13:34:39;;;;;;;3.17;1.05;;;17.60;99.90;;;;;;6193865;23;20047;-88
2022/06/13 13:37:20;;;;;;;2.13;1.83;;;17.50;99.90;;;;;;6194644;23;20135;-85
2022/06/13 13:39:56;;;;;;;4.30;1.73;;;17.50;99.90;;;;;;6219202;23;20012;-85
2022/06/13 13:42:53;;;;;;;4.67;1.53;;;17.40;99.90;;;;;;6194431;23;20016;-85
2022/06/13 13:45:32;;;;;;;2.47;1.17;;;17.30;99.90;;;;;;6219656;23;20448;-85
2022/06/13 13:48:17;;;;;;;5.97;1.55;;;17.10;99.90;;;;;;6219670;23;20016;-85
2022/06/13 13:50:53;;;;;;;6.53;1.20;;;17.00;99.90;;;;;;6244448;23;20050;-85
2022/06/13 13:53:24;;;;;;;1.50;0.90;;;16.90;99.90;;;;;;6194759;23;20024;-85
2022/06/13 13:55:57;;;;;;;2.08;0.95;;;16.90;99.90;;;;;;6219036;23;20314;-85
2022/06/13 13:58:33;;;;;;;1.20;0.82;;;17.10;99.90;;;;;;6219623;23;20016;-85
2022/06/13 14:01:22;;;;;;;1.50;1.10;;;17.30;99.90;;;;;;6219410;23;20012;-85